createdAt,value
2018-07-02T00:02:21.913Z,1.10
2018-07-02T00:04:50.088Z,1.23
2018-07-02T00:07:27.722Z,1.10
2018-07-02T00:09:56.118Z,1.30
2018-07-02T00:12:25.037Z,1.40
2018-07-02T00:14:53.901Z,1.40
2018-07-02T00:17:22.015Z,1.40
2018-07-02T00:19:50.149Z,1.20
2018-07-02T00:22:18.244Z,1.20
2018-07-02T00:24:46.317Z,1.50
2018-07-02T00:27:14.420Z,1.10
2018-07-02T00:29:42.507Z,1.20
2018-07-02T00:32:10.947Z,1.20
2018-07-02T00:34:39.032Z,1.83
2018-07-02T00:37:07.156Z,1.30
2018-07-02T00:39:35.452Z,1.32
2018-07-02T00:42:03.626Z,1.40
2018-07-02T00:44:31.714Z,1.33
2018-07-02T00:46:59.807Z,1.30
2018-07-02T00:49:27.903Z,1.20
2018-07-02T00:51:55.993Z,2.03
2018-07-02T00:54:24.063Z,1.30
2018-07-02T00:56:52.164Z,1.40
2018-07-02T00:59:20.235Z,1.40
2018-07-02T01:01:48.771Z,1.20
2018-07-02T01:04:16.884Z,1.40
2018-07-02T01:06:45.117Z,1.30
2018-07-02T01:09:13.590Z,1.30
2018-07-02T01:11:41.676Z,1.10
2018-07-02T01:14:09.789Z,1.27
2018-07-02T01:16:37.868Z,1.30
2018-07-02T01:19:06.717Z,1.50
2018-07-02T01:21:34.800Z,1.30
2018-07-02T01:24:02.920Z,1.30
2018-07-02T01:26:31.011Z,1.20
2018-07-02T01:28:59.108Z,1.43
2018-07-02T01:31:27.456Z,1.40
2018-07-02T01:33:55.545Z,1.43
2018-07-02T01:36:23.645Z,1.50
2018-07-02T01:38:51.867Z,1.50
2018-07-02T01:41:19.996Z,1.40
2018-07-02T01:43:48.160Z,1.50
2018-07-02T01:46:16.241Z,1.40
2018-07-02T01:48:44.336Z,1.40
2018-07-02T01:51:12.531Z,1.57
2018-07-02T01:53:40.931Z,1.60
2018-07-02T01:56:09.107Z,1.80
2018-07-02T01:58:38.017Z,2.00
2018-07-02T02:01:06.178Z,1.53
2018-07-02T02:03:34.269Z,1.67
2018-07-02T02:06:02.360Z,2.67
2018-07-02T02:08:30.479Z,1.97
2018-07-02T02:10:58.587Z,1.77
2018-07-02T02:13:26.681Z,1.50
2018-07-02T02:15:54.797Z,1.60
2018-07-02T02:18:22.908Z,1.50
2018-07-02T02:20:51.037Z,1.50
2018-07-02T02:23:19.153Z,1.60
2018-07-02T02:25:47.236Z,1.60
2018-07-02T02:28:15.296Z,1.85
2018-07-02T02:30:43.401Z,1.80
2018-07-02T02:33:11.572Z,1.60
2018-07-02T02:35:39.657Z,1.40
2018-07-02T02:38:07.873Z,1.40
2018-07-02T02:40:36.092Z,1.60
2018-07-02T02:43:04.217Z,2.03
2018-07-02T02:45:32.767Z,1.70
2018-07-02T02:48:00.960Z,1.60
2018-07-02T02:50:29.048Z,1.50
2018-07-02T02:52:57.156Z,1.57
2018-07-02T02:55:25.268Z,1.50
2018-07-02T02:57:53.595Z,1.60
2018-07-02T03:00:21.685Z,1.70
2018-07-02T03:02:49.980Z,1.50
2018-07-02T03:05:18.193Z,1.63
2018-07-02T03:07:46.300Z,1.62
2018-07-02T03:10:14.655Z,1.80
2018-07-02T03:12:42.771Z,1.87
2018-07-02T03:15:10.864Z,1.97
2018-07-02T03:17:38.961Z,2.60
2018-07-02T03:20:07.529Z,2.50
2018-07-02T03:22:35.739Z,2.30
2018-07-02T03:25:03.869Z,2.98
2018-07-02T03:27:31.952Z,2.67
2018-07-02T03:30:00.033Z,3.35
2018-07-02T03:32:28.224Z,2.70
2018-07-02T03:34:56.340Z,3.10
2018-07-02T03:37:24.429Z,3.05
2018-07-02T03:39:52.534Z,2.93
2018-07-02T03:42:20.795Z,3.43
2018-07-02T03:44:48.924Z,2.90
2018-07-02T03:47:17.860Z,2.80
2018-07-02T03:49:45.966Z,2.57
2018-07-02T03:52:14.052Z,3.10
2018-07-02T03:54:42.197Z,2.53
2018-07-02T03:57:10.420Z,3.23
2018-07-02T03:59:38.980Z,2.40
2018-07-02T04:02:07.079Z,3.17
2018-07-02T04:04:35.183Z,2.30
2018-07-02T04:07:03.383Z,2.30
2018-07-02T04:09:31.479Z,2.80
2018-07-02T04:11:59.683Z,2.43
2018-07-02T04:14:27.917Z,2.47
2018-07-02T04:16:56.064Z,2.00
2018-07-02T04:19:24.173Z,2.30
2018-07-02T04:21:52.287Z,2.43
2018-07-02T04:24:20.376Z,2.50
2018-07-02T04:26:48.471Z,2.17
2018-07-02T04:29:16.556Z,2.30
2018-07-02T04:31:44.704Z,2.30
2018-07-02T04:34:13.807Z,2.00
2018-07-02T04:36:41.855Z,2.10
2018-07-02T04:39:09.956Z,1.77
2018-07-02T04:41:38.360Z,1.70
2018-07-02T04:44:06.896Z,1.80
2018-07-02T04:46:35.082Z,1.80
2018-07-02T04:49:03.221Z,2.20
2018-07-02T04:51:31.292Z,2.00
2018-07-02T04:53:59.363Z,2.00
2018-07-02T04:56:27.451Z,2.62
2018-07-02T04:58:55.644Z,2.52
2018-07-02T05:01:23.735Z,1.72
2018-07-02T05:03:51.968Z,1.67
2018-07-02T05:06:20.084Z,2.00
2018-07-02T05:08:48.164Z,1.50
2018-07-02T05:11:16.308Z,1.43
2018-07-02T05:13:45.312Z,1.80
2018-07-02T05:16:13.381Z,1.53
2018-07-02T05:18:41.743Z,1.50
2018-07-02T05:21:09.850Z,1.57
2018-07-02T05:23:37.941Z,1.40
2018-07-02T05:26:06.079Z,1.40
2018-07-02T05:28:34.424Z,1.10
2018-07-02T05:31:02.506Z,1.63
2018-07-02T05:33:30.589Z,1.33
2018-07-02T05:35:58.682Z,1.20
2018-07-02T05:38:26.786Z,1.10
2018-07-02T05:40:55.122Z,1.33
2018-07-02T05:43:23.265Z,1.10
2018-07-02T05:45:51.356Z,1.50
2018-07-02T05:48:19.544Z,1.37
2018-07-02T05:50:47.644Z,1.35
2018-07-02T05:53:15.864Z,1.12
2018-07-02T05:55:43.936Z,1.20
2018-07-02T05:58:12.016Z,1.33
2018-07-02T06:00:40.132Z,1.20
2018-07-02T06:03:08.206Z,1.10
2018-07-02T06:05:36.296Z,1.17
2018-07-02T06:08:04.641Z,0.93
2018-07-02T06:10:32.683Z,1.40
2018-07-02T06:13:01.029Z,1.10
2018-07-02T06:15:29.153Z,1.30
2018-07-02T06:17:57.240Z,1.00
2018-07-02T06:20:25.500Z,1.27
2018-07-02T06:22:53.665Z,1.07
2018-07-02T06:25:21.757Z,1.10
2018-07-02T06:27:50.157Z,1.30
2018-07-02T06:30:18.419Z,1.30
2018-07-02T06:32:46.737Z,1.17
2018-07-02T06:35:14.829Z,1.30
2018-07-02T06:37:42.925Z,1.20
2018-07-02T06:40:11.009Z,1.30
2018-07-02T06:42:39.443Z,0.97
2018-07-02T06:45:07.527Z,1.20
2018-07-02T06:47:35.643Z,1.17
2018-07-02T06:50:03.758Z,1.10
2018-07-02T06:52:31.852Z,1.10
2018-07-02T06:54:59.926Z,1.35
2018-07-02T06:57:28.036Z,0.97
2018-07-02T06:59:56.108Z,1.20
2018-07-02T07:02:24.195Z,1.10
2018-07-02T07:04:52.439Z,1.30
2018-07-02T07:07:20.542Z,1.20
2018-07-02T07:09:48.672Z,1.10
2018-07-02T07:12:16.749Z,1.00
2018-07-02T07:14:44.844Z,1.20
2018-07-02T07:17:13.025Z,1.30
2018-07-02T07:19:42.138Z,1.10
2018-07-02T07:22:10.276Z,1.20
2018-07-02T07:24:38.388Z,1.43
2018-07-02T07:27:06.478Z,1.10
2018-07-02T07:29:34.583Z,1.20
2018-07-02T07:32:02.668Z,1.30
2018-07-02T07:34:30.765Z,1.10
2018-07-02T07:36:58.852Z,1.20
2018-07-02T07:39:26.937Z,1.10
2018-07-02T07:44:47.448Z,1.30
2018-07-02T07:47:15.533Z,1.30
2018-07-02T07:49:43.612Z,1.20
2018-07-02T07:52:11.809Z,1.20
2018-07-02T07:54:39.888Z,1.23
2018-07-02T07:57:07.973Z,1.10
2018-07-02T07:59:36.053Z,1.25
2018-07-02T08:02:04.132Z,1.10
2018-07-02T08:04:32.221Z,1.07
2018-07-02T08:07:00.328Z,1.07
2018-07-02T08:09:28.432Z,1.17
2018-07-02T08:11:56.638Z,1.13
2018-07-02T08:14:24.772Z,0.83
2018-07-02T08:16:53.284Z,1.07
2018-07-02T08:19:21.389Z,1.20
2018-07-02T08:21:49.828Z,1.10
2018-07-02T08:24:17.944Z,1.10
2018-07-02T08:26:46.032Z,1.10
2018-07-02T08:29:14.094Z,1.20
2018-07-02T08:31:42.204Z,1.00
2018-07-02T08:34:10.493Z,1.20
2018-07-02T08:36:38.610Z,1.43
2018-07-02T08:39:09.305Z,1.30
2018-07-02T08:41:37.401Z,1.07
2018-07-02T08:44:05.858Z,1.27
2018-07-02T08:46:34.333Z,1.20
2018-07-02T08:49:02.549Z,1.03
2018-07-02T08:51:31.004Z,1.17
2018-07-02T08:53:59.185Z,1.10
2018-07-02T08:56:27.293Z,0.90
2018-07-02T08:58:55.428Z,1.03
2018-07-02T09:01:23.544Z,0.90
2018-07-02T09:03:52.177Z,1.40
2018-07-02T09:06:20.304Z,0.97
2018-07-02T09:08:48.374Z,1.10
2018-07-02T09:11:16.468Z,1.00
2018-07-02T09:13:44.547Z,1.20
2018-07-02T09:16:12.641Z,1.07
2018-07-02T09:18:40.715Z,1.00
2018-07-02T09:21:08.810Z,0.80
2018-07-02T09:23:36.888Z,1.10
2018-07-02T09:26:05.224Z,1.10
2018-07-02T09:28:33.290Z,1.07
2018-07-02T09:31:01.385Z,0.97
2018-07-02T09:33:29.465Z,1.00
2018-07-02T09:35:57.600Z,1.00
2018-07-02T09:38:25.692Z,1.03
2018-07-02T09:40:54.004Z,1.07
2018-07-02T09:43:21.872Z,1.30
2018-07-02T09:45:49.960Z,0.93
2018-07-02T09:48:18.511Z,1.23
2018-07-02T09:50:47.069Z,1.00
2018-07-02T09:53:15.160Z,1.10
2018-07-02T09:55:43.245Z,0.90
2018-07-02T09:58:11.333Z,1.00
2018-07-02T10:00:39.474Z,1.03
2018-07-02T10:03:08.996Z,1.10
2018-07-02T10:05:37.082Z,0.97
2018-07-02T10:08:05.204Z,0.90
2018-07-02T10:10:33.286Z,1.37
2018-07-02T10:13:01.444Z,0.97
2018-07-02T10:15:29.540Z,1.00
2018-07-02T10:17:58.258Z,1.10
2018-07-02T10:20:26.513Z,1.00
2018-07-02T10:22:54.727Z,1.00
2018-07-02T10:25:22.796Z,1.07
2018-07-02T10:27:50.965Z,1.07
2018-07-02T10:30:19.084Z,1.10
2018-07-02T10:32:47.212Z,0.90
2018-07-02T10:35:15.363Z,1.10
2018-07-02T10:37:43.531Z,0.98
2018-07-02T10:40:11.670Z,0.80
2018-07-02T10:42:39.774Z,0.90
2018-07-02T10:45:08.188Z,1.00
2018-07-02T10:47:36.244Z,1.07
2018-07-02T10:50:04.326Z,1.07
2018-07-02T10:52:32.506Z,1.10
2018-07-02T10:55:00.611Z,1.10
2018-07-02T10:57:28.733Z,1.27
2018-07-02T10:59:57.119Z,1.10
2018-07-02T11:02:25.261Z,1.07
2018-07-02T11:04:53.468Z,0.90
2018-07-02T11:07:21.560Z,0.97
2018-07-02T11:09:50.058Z,1.00
2018-07-02T11:12:19.248Z,1.00
2018-07-02T11:14:47.467Z,1.00
2018-07-02T11:17:15.582Z,1.00
2018-07-02T11:19:43.774Z,1.10
2018-07-02T11:22:11.867Z,1.50
2018-07-02T11:24:40.108Z,1.00
2018-07-02T11:27:08.317Z,0.97
2018-07-02T11:29:36.421Z,1.20
2018-07-02T11:32:04.510Z,1.37
2018-07-02T11:34:32.603Z,1.00
2018-07-02T11:37:01.199Z,1.00
2018-07-02T11:39:29.299Z,1.20
2018-07-02T11:41:57.380Z,0.87
2018-07-02T11:44:25.530Z,1.00
2018-07-02T11:46:53.704Z,1.33
2018-07-02T11:49:21.794Z,1.00
2018-07-02T11:51:50.021Z,1.20
2018-07-02T11:54:18.169Z,1.10
2018-07-02T11:56:46.275Z,0.90
2018-07-02T11:59:14.356Z,1.20
2018-07-02T12:01:42.564Z,1.13
2018-07-02T12:04:11.021Z,1.10
2018-07-02T12:06:39.092Z,1.20
2018-07-02T12:09:08.565Z,1.30
2018-07-02T12:11:36.632Z,1.00
2018-07-02T12:14:04.732Z,0.90
2018-07-02T12:16:32.826Z,1.10
2018-07-02T12:19:00.935Z,0.90
2018-07-02T12:21:29.052Z,1.07
2018-07-02T12:23:57.144Z,0.80
2018-07-02T12:26:25.457Z,0.90
2018-07-02T12:28:53.792Z,0.93
2018-07-02T12:31:21.892Z,1.07
2018-07-02T12:33:49.992Z,1.00
2018-07-02T12:36:18.115Z,1.20
2018-07-02T12:38:46.203Z,1.00
2018-07-02T12:41:14.306Z,1.10
2018-07-02T12:43:42.389Z,1.00
2018-07-02T12:46:10.524Z,1.20
2018-07-02T12:48:38.580Z,1.35
2018-07-02T12:51:06.681Z,1.00
2018-07-02T12:53:34.768Z,1.00
2018-07-02T12:56:03.421Z,1.10
2018-07-02T12:58:31.596Z,1.10
2018-07-02T13:00:59.689Z,1.10
2018-07-02T13:03:28.171Z,0.90
2018-07-02T13:05:56.313Z,1.13
2018-07-02T13:08:24.405Z,0.90
2018-07-02T13:10:52.517Z,1.10
2018-07-02T13:13:20.644Z,1.60
2018-07-02T13:15:48.744Z,1.00
2018-07-02T13:18:16.823Z,1.03
2018-07-02T13:20:45.149Z,1.13
2018-07-02T13:23:13.180Z,1.03
2018-07-02T13:25:41.272Z,1.13
2018-07-02T13:28:09.360Z,1.00
2018-07-02T13:30:37.458Z,2.20
2018-07-02T13:33:05.588Z,1.00
2018-07-02T13:35:34.602Z,1.10
2018-07-02T13:38:02.700Z,1.13
2018-07-02T13:40:30.784Z,0.97
2018-07-02T13:43:05.778Z,0.93
2018-07-02T13:45:34.878Z,1.12
2018-07-02T13:48:03.036Z,1.17
2018-07-02T13:50:31.115Z,1.00
2018-07-02T13:52:59.301Z,1.33
2018-07-02T13:55:27.425Z,1.20
2018-07-02T13:57:56.572Z,1.07
2018-07-02T14:00:24.852Z,1.00
2018-07-02T14:02:53.389Z,1.00
2018-07-02T14:05:21.503Z,1.20
2018-07-02T14:07:49.682Z,0.90
2018-07-02T14:10:18.067Z,0.97
2018-07-02T14:12:46.149Z,1.00
2018-07-02T14:15:14.241Z,1.10
2018-07-02T14:17:42.337Z,0.97
2018-07-02T14:20:10.530Z,0.90
2018-07-02T14:22:38.652Z,1.07
2018-07-02T14:25:06.781Z,1.00
2018-07-02T14:27:34.876Z,1.00
2018-07-02T14:30:03.016Z,0.90
2018-07-02T14:32:31.105Z,1.00
2018-07-02T14:34:59.197Z,1.00
2018-07-02T14:37:27.371Z,1.03
2018-07-02T14:39:55.476Z,1.00
2018-07-02T14:42:23.571Z,1.10
2018-07-02T14:44:51.783Z,1.20
2018-07-02T14:47:20.183Z,0.90
2018-07-02T14:49:48.537Z,1.00
2018-07-02T14:52:16.624Z,0.90
2018-07-02T14:54:44.849Z,1.13
2018-07-02T14:57:13.077Z,0.97
2018-07-02T14:59:41.173Z,0.90
2018-07-02T15:02:09.290Z,0.90
2018-07-02T15:04:37.497Z,1.00
2018-07-02T15:07:05.829Z,1.00
2018-07-02T15:09:33.932Z,1.00
2018-07-02T15:12:02.005Z,1.10
2018-07-02T15:14:30.472Z,0.90
2018-07-02T15:16:58.586Z,1.20
2018-07-02T15:19:26.712Z,0.90
2018-07-02T15:21:55.161Z,0.93
2018-07-02T15:24:23.610Z,1.23
2018-07-02T15:26:51.989Z,1.00
2018-07-02T15:29:20.109Z,1.00
2018-07-02T15:31:48.229Z,1.07
2018-07-02T15:34:16.336Z,0.70
2018-07-02T15:36:44.420Z,1.13
2018-07-02T15:39:12.540Z,1.00
2018-07-02T15:41:40.746Z,1.37
2018-07-02T15:44:08.806Z,1.00
2018-07-02T15:46:36.949Z,0.90
2018-07-02T15:49:05.088Z,1.00
2018-07-02T15:51:33.172Z,1.00
2018-07-02T15:54:01.945Z,1.00
2018-07-02T15:56:29.803Z,1.00
2018-07-02T15:58:57.901Z,1.00
2018-07-02T16:01:25.981Z,1.10
2018-07-02T16:03:54.084Z,1.10
2018-07-02T16:06:22.195Z,0.80
2018-07-02T16:08:50.298Z,1.00
2018-07-02T16:11:18.580Z,1.30
2018-07-02T16:13:46.768Z,1.07
2018-07-02T16:16:14.985Z,1.03
2018-07-02T16:18:43.099Z,1.00
2018-07-02T16:21:11.304Z,1.20
2018-07-02T16:23:40.201Z,0.80
2018-07-02T16:26:08.313Z,1.00
2018-07-02T16:28:36.772Z,0.80
2018-07-02T16:31:05.121Z,1.30
2018-07-02T16:33:33.259Z,1.00
2018-07-02T16:36:01.352Z,0.97
2018-07-02T16:38:29.432Z,0.90
2018-07-02T16:40:57.540Z,1.20
2018-07-02T16:43:25.672Z,0.90
2018-07-02T16:45:53.771Z,0.70
2018-07-02T16:48:21.949Z,1.10
2018-07-02T16:50:50.084Z,0.90
2018-07-02T16:53:18.230Z,1.20
2018-07-02T16:55:46.373Z,0.90
2018-07-02T16:58:14.464Z,0.90
2018-07-02T17:00:42.549Z,0.90
2018-07-02T17:03:11.670Z,1.02
2018-07-02T17:05:39.769Z,1.53
2018-07-02T17:08:07.844Z,0.97
2018-07-02T17:10:35.945Z,0.90
2018-07-02T17:13:04.076Z,0.83
2018-07-02T17:15:32.193Z,0.80
2018-07-02T17:18:00.265Z,0.90
2018-07-02T17:20:28.556Z,0.90
2018-07-02T17:22:56.636Z,1.00
2018-07-02T17:25:24.730Z,0.90
2018-07-02T17:27:52.842Z,1.27
2018-07-02T17:30:20.956Z,0.73
2018-07-02T17:32:49.106Z,0.80
2018-07-02T17:35:17.209Z,1.00
2018-07-02T17:37:45.305Z,0.90
2018-07-02T17:40:13.400Z,1.00
2018-07-02T17:42:41.836Z,1.10
2018-07-02T17:45:09.960Z,1.00
2018-07-02T17:47:38.055Z,1.00
2018-07-02T17:50:06.279Z,1.10
2018-07-02T17:52:34.415Z,0.90
2018-07-02T17:55:02.510Z,1.00
2018-07-02T17:57:30.611Z,1.10
2018-07-02T17:59:58.686Z,1.17
2018-07-02T18:02:28.618Z,0.90
2018-07-02T18:04:56.736Z,1.03
2018-07-02T18:07:24.821Z,1.00
2018-07-02T18:09:52.958Z,1.00
2018-07-02T18:12:21.008Z,0.90
2018-07-02T18:14:49.243Z,1.10
2018-07-02T18:17:17.454Z,1.02
2018-07-02T18:19:45.545Z,0.90
2018-07-02T18:22:14.989Z,1.27
2018-07-02T18:24:43.347Z,1.00
2018-07-02T18:27:11.446Z,1.10
2018-07-02T18:29:39.538Z,0.93
2018-07-02T18:32:08.301Z,0.90
2018-07-02T18:34:36.358Z,1.30
2018-07-02T18:37:04.459Z,1.03
2018-07-02T18:39:32.548Z,1.00
2018-07-02T18:42:00.776Z,0.90
2018-07-02T18:44:28.865Z,0.90
2018-07-02T18:46:56.982Z,0.90
2018-07-02T18:49:25.089Z,0.90
2018-07-02T18:51:53.878Z,1.07
2018-07-02T18:54:21.997Z,0.90
2018-07-02T18:56:50.178Z,0.80
2018-07-02T18:59:18.278Z,1.10
2018-07-02T19:01:46.357Z,0.80
2018-07-02T19:04:14.517Z,0.87
2018-07-02T19:06:42.661Z,1.10
2018-07-02T19:09:11.690Z,0.87
2018-07-02T19:11:40.057Z,0.90
2018-07-02T19:14:08.165Z,1.00
2018-07-02T19:16:36.392Z,0.80
2018-07-02T19:19:04.484Z,1.10
2018-07-02T19:21:32.645Z,1.00
2018-07-02T19:24:00.810Z,1.10
2018-07-02T19:26:28.951Z,1.10
2018-07-02T19:28:58.045Z,1.20
2018-07-02T19:31:26.143Z,1.10
2018-07-02T19:33:54.236Z,1.10
2018-07-02T19:36:22.432Z,1.47
2018-07-02T19:38:50.538Z,0.90
2018-07-02T19:41:17.679Z,0.90
2018-07-02T19:43:45.764Z,2.00
2018-07-02T19:46:13.853Z,1.20
2018-07-02T19:48:41.956Z,1.30
2018-07-02T19:51:10.048Z,1.00
2018-07-02T19:53:38.164Z,1.03
2018-07-02T19:56:06.403Z,1.07
2018-07-02T19:58:34.560Z,1.00
2018-07-02T20:01:02.669Z,1.07
2018-07-02T20:03:30.760Z,0.87
2018-07-02T20:05:58.869Z,1.00
2018-07-02T20:08:26.993Z,1.10
2018-07-02T20:10:55.104Z,0.73
2018-07-02T20:13:23.827Z,1.20
2018-07-02T20:15:51.922Z,1.00
2018-07-02T20:18:20.027Z,1.00
2018-07-02T20:20:48.132Z,1.00
2018-07-02T20:23:16.944Z,0.93
2018-07-02T20:25:45.459Z,0.80
2018-07-02T20:28:13.592Z,1.00
2018-07-02T20:30:41.687Z,1.00
2018-07-02T20:33:09.812Z,1.33
2018-07-02T20:35:37.947Z,1.30
2018-07-02T20:38:06.083Z,1.00
2018-07-02T20:40:34.173Z,1.10
2018-07-02T20:43:02.343Z,1.00
2018-07-02T20:45:30.542Z,1.20
2018-07-02T20:47:58.612Z,0.90
2018-07-02T20:50:26.773Z,1.17
2018-07-02T20:52:54.984Z,1.10
2018-07-02T20:55:23.420Z,1.00
2018-07-02T20:57:51.512Z,1.10
2018-07-02T21:00:19.604Z,2.23
2018-07-02T21:02:47.700Z,0.93
2018-07-02T21:05:16.005Z,0.98
2018-07-02T21:07:44.088Z,2.03
2018-07-02T21:10:12.240Z,1.00
2018-07-02T21:12:40.280Z,1.00
2018-07-02T21:15:08.389Z,1.03
2018-07-02T21:17:36.516Z,1.30
2018-07-02T21:20:05.041Z,0.80
2018-07-02T21:22:33.120Z,0.90
2018-07-02T21:25:01.627Z,0.90
2018-07-02T21:27:29.706Z,0.95
2018-07-02T21:29:58.635Z,0.90
2018-07-02T21:32:27.211Z,1.20
2018-07-02T21:34:55.341Z,0.93
2018-07-02T21:37:23.501Z,0.90
2018-07-02T21:39:51.592Z,0.93
2018-07-02T21:42:19.797Z,1.03
2018-07-02T21:44:47.928Z,1.00
2018-07-02T21:47:15.999Z,1.00
2018-07-02T21:49:44.084Z,1.13
2018-07-02T21:52:12.177Z,1.20
2018-07-02T21:54:40.272Z,1.00
2018-07-02T21:57:08.356Z,1.17
2018-07-02T22:02:38.812Z,1.17
2018-07-02T22:05:06.980Z,0.80
2018-07-02T22:07:35.117Z,1.00
2018-07-02T22:10:03.209Z,1.00
2018-07-02T22:12:31.331Z,0.90
2018-07-02T22:14:59.411Z,1.00
2018-07-02T22:17:27.510Z,0.93
2018-07-02T22:19:55.892Z,1.20
2018-07-02T22:22:23.995Z,1.00
2018-07-02T22:24:52.121Z,1.10
2018-07-02T22:27:20.242Z,1.00
2018-07-02T22:29:48.352Z,1.00
2018-07-02T22:32:16.606Z,1.10
2018-07-02T22:34:44.723Z,0.90
2018-07-02T22:37:12.908Z,1.07
2018-07-02T22:39:41.049Z,1.00
2018-07-02T22:42:09.215Z,1.00
2018-07-02T22:44:37.330Z,0.90
2018-07-02T22:47:05.503Z,1.12
2018-07-02T22:49:34.435Z,1.22
2018-07-02T22:52:02.515Z,1.10
2018-07-02T22:54:30.607Z,1.10
2018-07-02T22:56:58.700Z,1.37
2018-07-02T22:59:27.180Z,1.07
2018-07-02T23:01:55.323Z,0.90
2018-07-02T23:04:23.410Z,1.00
2018-07-02T23:06:51.510Z,1.20
2018-07-02T23:09:19.741Z,1.10
2018-07-02T23:11:47.822Z,1.10
2018-07-02T23:14:15.887Z,1.20
2018-07-02T23:16:44.304Z,1.10
2018-07-02T23:19:12.474Z,1.23
2018-07-02T23:21:40.752Z,1.43
2018-07-02T23:24:09.122Z,1.40
2018-07-02T23:26:37.538Z,1.20
2018-07-02T23:29:05.669Z,1.30
2018-07-02T23:31:33.750Z,1.73
2018-07-02T23:34:01.832Z,1.40
2018-07-02T23:36:29.914Z,1.57
2018-07-02T23:38:59.015Z,1.35
2018-07-02T23:41:27.195Z,1.37
2018-07-02T23:43:58.288Z,1.47
2018-07-02T23:46:26.372Z,1.53
2018-07-02T23:48:54.460Z,1.10
2018-07-02T23:51:22.552Z,1.10
2018-07-02T23:53:50.760Z,1.33
2018-07-02T23:56:18.947Z,1.10
2018-07-02T23:58:47.045Z,1.17
